sensor_id;sensor_type;location;lat;lon;timestamp;temperature;humidity
78522;SHT31;67819;51.972;5.678;2023-05-29T00:00:04;13.0;65.8
78522;SHT31;67819;51.972;5.678;2023-05-29T00:02:34;13.0;65.7
78522;SHT31;67819;51.972;5.678;2023-05-29T00:05:03;12.9;65.9
78522;SHT31;67819;51.972;5.678;2023-05-29T00:07:32;12.9;66.1
78522;SHT31;67819;51.972;5.678;2023-05-29T00:10:01;12.8;66.3
78522;SHT31;67819;51.972;5.678;2023-05-29T00:12:29;12.8;66.6
78522;SHT31;67819;51.972;5.678;2023-05-29T00:14:58;12.8;66.6
78522;SHT31;67819;51.972;5.678;2023-05-29T00:17:28;12.7;66.9
78522;SHT31;67819;51.972;5.678;2023-05-29T00:19:58;12.7;66.9
78522;SHT31;67819;51.972;5.678;2023-05-29T00:22:28;12.6;67.4
78522;SHT31;67819;51.972;5.678;2023-05-29T00:24:56;12.6;67.3
78522;SHT31;67819;51.972;5.678;2023-05-29T00:27:27;12.6;67.8
78522;SHT31;67819;51.972;5.678;2023-05-29T00:29:55;12.5;67.7
78522;SHT31;67819;51.972;5.678;2023-05-29T00:32:24;12.5;67.8
78522;SHT31;67819;51.972;5.678;2023-05-29T00:34:54;12.5;67.8
78522;SHT31;67819;51.972;5.678;2023-05-29T00:37:23;12.4;68.0
78522;SHT31;67819;51.972;5.678;2023-05-29T00:39:52;12.4;68.0
78522;SHT31;67819;51.972;5.678;2023-05-29T00:42:20;12.4;67.9
78522;SHT31;67819;51.972;5.678;2023-05-29T00:44:49;12.4;67.9
78522;SHT31;67819;51.972;5.678;2023-05-29T00:47:17;12.4;67.8
78522;SHT31;67819;51.972;5.678;2023-05-29T00:49:47;12.3;67.7
78522;SHT31;67819;51.972;5.678;2023-05-29T00:52:20;12.3;67.7
78522;SHT31;67819;51.972;5.678;2023-05-29T00:54:49;12.3;67.8
78522;SHT31;67819;51.972;5.678;2023-05-29T00:57:20;12.3;67.9
78522;SHT31;67819;51.972;5.678;2023-05-29T00:59:50;12.3;67.2
78522;SHT31;67819;51.972;5.678;2023-05-29T01:02:20;12.3;67.2
78522;SHT31;67819;51.972;5.678;2023-05-29T01:04:49;12.2;67.0
78522;SHT31;67819;51.972;5.678;2023-05-29T01:07:21;12.2;66.8
78522;SHT31;67819;51.972;5.678;2023-05-29T01:09:51;12.2;66.9
78522;SHT31;67819;51.972;5.678;2023-05-29T01:12:31;12.2;66.5
78522;SHT31;67819;51.972;5.678;2023-05-29T01:15:24;12.2;66.2
78522;SHT31;67819;51.972;5.678;2023-05-29T01:18:08;12.2;66.2
78522;SHT31;67819;51.972;5.678;2023-05-29T01:20:50;12.2;66.4
78522;SHT31;67819;51.972;5.678;2023-05-29T01:23:53;12.2;66.2
78522;SHT31;67819;51.972;5.678;2023-05-29T01:28:20;12.2;66.6
78522;SHT31;67819;51.972;5.678;2023-05-29T01:30:51;12.2;66.1
78522;SHT31;67819;51.972;5.678;2023-05-29T01:33:22;12.2;66.2
78522;SHT31;67819;51.972;5.678;2023-05-29T01:35:50;12.2;66.2
78522;SHT31;67819;51.972;5.678;2023-05-29T01:38:19;12.2;66.1
78522;SHT31;67819;51.972;5.678;2023-05-29T01:40:48;12.2;66.2
78522;SHT31;67819;51.972;5.678;2023-05-29T01:43:17;12.2;66.3
78522;SHT31;67819;51.972;5.678;2023-05-29T01:45:46;12.1;66.5
78522;SHT31;67819;51.972;5.678;2023-05-29T01:48:14;12.1;66.6
78522;SHT31;67819;51.972;5.678;2023-05-29T01:50:45;12.1;66.7
78522;SHT31;67819;51.972;5.678;2023-05-29T01:53:14;12.1;66.7
78522;SHT31;67819;51.972;5.678;2023-05-29T01:55:43;12.1;66.8
78522;SHT31;67819;51.972;5.678;2023-05-29T01:58:14;12.1;66.9
78522;SHT31;67819;51.972;5.678;2023-05-29T02:00:43;12.1;67.1
78522;SHT31;67819;51.972;5.678;2023-05-29T02:03:12;12.0;67.0
78522;SHT31;67819;51.972;5.678;2023-05-29T02:05:41;12.0;67.2
78522;SHT31;67819;51.972;5.678;2023-05-29T02:08:09;12.0;67.3
78522;SHT31;67819;51.972;5.678;2023-05-29T02:10:38;12.0;67.3
78522;SHT31;67819;51.972;5.678;2023-05-29T02:13:07;11.9;67.5
78522;SHT31;67819;51.972;5.678;2023-05-29T02:15:35;11.9;67.7
78522;SHT31;67819;51.972;5.678;2023-05-29T02:18:04;11.8;67.7
78522;SHT31;67819;51.972;5.678;2023-05-29T02:20:35;11.8;68.0
78522;SHT31;67819;51.972;5.678;2023-05-29T02:23:04;11.8;68.2
78522;SHT31;67819;51.972;5.678;2023-05-29T02:25:33;11.7;68.4
78522;SHT31;67819;51.972;5.678;2023-05-29T02:28:02;11.7;68.7
78522;SHT31;67819;51.972;5.678;2023-05-29T02:30:31;11.6;68.8
78522;SHT31;67819;51.972;5.678;2023-05-29T02:32:59;11.6;68.7
78522;SHT31;67819;51.972;5.678;2023-05-29T02:35:28;11.6;68.9
78522;SHT31;67819;51.972;5.678;2023-05-29T02:37:57;11.6;68.9
78522;SHT31;67819;51.972;5.678;2023-05-29T02:40:25;11.5;69.0
78522;SHT31;67819;51.972;5.678;2023-05-29T02:42:54;11.5;68.8
78522;SHT31;67819;51.972;5.678;2023-05-29T02:45:24;11.5;68.9
78522;SHT31;67819;51.972;5.678;2023-05-29T02:47:53;11.5;69.0
78522;SHT31;67819;51.972;5.678;2023-05-29T02:50:21;11.5;69.1
78522;SHT31;67819;51.972;5.678;2023-05-29T02:52:50;11.4;69.2
78522;SHT31;67819;51.972;5.678;2023-05-29T02:55:19;11.4;69.3
78522;SHT31;67819;51.972;5.678;2023-05-29T02:57:47;11.4;69.2
78522;SHT31;67819;51.972;5.678;2023-05-29T03:00:19;11.4;69.3
78522;SHT31;67819;51.972;5.678;2023-05-29T03:02:48;11.3;69.6
78522;SHT31;67819;51.972;5.678;2023-05-29T03:05:16;11.3;69.6
78522;SHT31;67819;51.972;5.678;2023-05-29T03:07:45;11.3;69.7
78522;SHT31;67819;51.972;5.678;2023-05-29T03:10:16;11.3;69.6
78522;SHT31;67819;51.972;5.678;2023-05-29T03:12:46;11.2;69.6
78522;SHT31;67819;51.972;5.678;2023-05-29T03:15:15;11.2;69.7
78522;SHT31;67819;51.972;5.678;2023-05-29T03:17:46;11.1;69.8
78522;SHT31;67819;51.972;5.678;2023-05-29T03:20:17;11.1;69.9
78522;SHT31;67819;51.972;5.678;2023-05-29T03:22:45;11.0;70.0
78522;SHT31;67819;51.972;5.678;2023-05-29T03:25:15;11.0;70.2
78522;SHT31;67819;51.972;5.678;2023-05-29T03:27:44;11.0;70.2
78522;SHT31;67819;51.972;5.678;2023-05-29T03:30:13;10.9;70.4
78522;SHT31;67819;51.972;5.678;2023-05-29T03:32:42;10.9;70.3
78522;SHT31;67819;51.972;5.678;2023-05-29T03:35:10;10.9;70.6
78522;SHT31;67819;51.972;5.678;2023-05-29T03:37:39;10.9;70.3
78522;SHT31;67819;51.972;5.678;2023-05-29T03:40:08;10.8;70.2
78522;SHT31;67819;51.972;5.678;2023-05-29T03:42:37;10.8;70.3
78522;SHT31;67819;51.972;5.678;2023-05-29T03:45:08;10.8;70.3
78522;SHT31;67819;51.972;5.678;2023-05-29T03:47:37;10.8;70.3
78522;SHT31;67819;51.972;5.678;2023-05-29T03:50:09;10.8;70.4
78522;SHT31;67819;51.972;5.678;2023-05-29T03:52:40;10.8;70.1
78522;SHT31;67819;51.972;5.678;2023-05-29T03:55:10;10.8;70.2
78522;SHT31;67819;51.972;5.678;2023-05-29T03:57:41;10.8;70.0
78522;SHT31;67819;51.972;5.678;2023-05-29T04:00:11;10.8;70.1
78522;SHT31;67819;51.972;5.678;2023-05-29T04:02:40;10.8;70.2
78522;SHT31;67819;51.972;5.678;2023-05-29T04:05:09;10.9;69.8
78522;SHT31;67819;51.972;5.678;2023-05-29T04:07:39;10.9;69.5
78522;SHT31;67819;51.972;5.678;2023-05-29T04:10:09;10.9;69.2
78522;SHT31;67819;51.972;5.678;2023-05-29T04:12:38;10.9;69.1
78522;SHT31;67819;51.972;5.678;2023-05-29T04:15:07;10.9;69.0
78522;SHT31;67819;51.972;5.678;2023-05-29T04:17:36;10.9;68.9
78522;SHT31;67819;51.972;5.678;2023-05-29T04:20:05;10.9;69.0
78522;SHT31;67819;51.972;5.678;2023-05-29T04:22:35;10.9;68.6
78522;SHT31;67819;51.972;5.678;2023-05-29T04:25:05;10.9;68.7
78522;SHT31;67819;51.972;5.678;2023-05-29T04:27:33;10.9;68.6
78522;SHT31;67819;51.972;5.678;2023-05-29T04:30:05;11.0;68.6
78522;SHT31;67819;51.972;5.678;2023-05-29T04:32:34;11.0;68.6
78522;SHT31;67819;51.972;5.678;2023-05-29T04:35:03;11.0;68.7
78522;SHT31;67819;51.972;5.678;2023-05-29T04:37:32;11.0;68.5
78522;SHT31;67819;51.972;5.678;2023-05-29T04:40:04;11.1;68.2
78522;SHT31;67819;51.972;5.678;2023-05-29T04:42:35;11.1;67.9
78522;SHT31;67819;51.972;5.678;2023-05-29T04:45:04;11.1;67.7
78522;SHT31;67819;51.972;5.678;2023-05-29T04:47:33;11.2;67.7
78522;SHT31;67819;51.972;5.678;2023-05-29T04:50:03;11.2;67.4
78522;SHT31;67819;51.972;5.678;2023-05-29T04:52:31;11.2;67.5
78522;SHT31;67819;51.972;5.678;2023-05-29T04:55:00;11.3;67.0
78522;SHT31;67819;51.972;5.678;2023-05-29T04:57:28;11.3;66.8
78522;SHT31;67819;51.972;5.678;2023-05-29T04:59:57;11.3;66.8
78522;SHT31;67819;51.972;5.678;2023-05-29T05:02:25;11.3;66.7
78522;SHT31;67819;51.972;5.678;2023-05-29T05:04:54;11.4;66.6
78522;SHT31;67819;51.972;5.678;2023-05-29T05:07:25;11.4;66.4
78522;SHT31;67819;51.972;5.678;2023-05-29T05:09:53;11.5;66.5
78522;SHT31;67819;51.972;5.678;2023-05-29T05:12:22;11.5;66.6
78522;SHT31;67819;51.972;5.678;2023-05-29T05:14:50;11.6;66.0
78522;SHT31;67819;51.972;5.678;2023-05-29T05:17:19;11.8;65.3
78522;SHT31;67819;51.972;5.678;2023-05-29T05:19:48;11.9;64.7
78522;SHT31;67819;51.972;5.678;2023-05-29T05:22:20;12.1;64.6
78522;SHT31;67819;51.972;5.678;2023-05-29T05:24:49;12.2;63.8
78522;SHT31;67819;51.972;5.678;2023-05-29T05:27:18;12.4;63.7
78522;SHT31;67819;51.972;5.678;2023-05-29T05:29:47;12.6;62.4
78522;SHT31;67819;51.972;5.678;2023-05-29T05:32:15;12.8;61.4
78522;SHT31;67819;51.972;5.678;2023-05-29T05:34:46;13.0;60.4
78522;SHT31;67819;51.972;5.678;2023-05-29T05:37:14;13.2;60.2
78522;SHT31;67819;51.972;5.678;2023-05-29T05:39:43;13.4;58.6
78522;SHT31;67819;51.972;5.678;2023-05-29T05:42:11;13.6;58.0
78522;SHT31;67819;51.972;5.678;2023-05-29T05:44:41;13.7;58.3
78522;SHT31;67819;51.972;5.678;2023-05-29T05:47:10;13.9;56.2
78522;SHT31;67819;51.972;5.678;2023-05-29T05:49:38;14.1;55.1
78522;SHT31;67819;51.972;5.678;2023-05-29T05:52:07;14.1;55.6
78522;SHT31;67819;51.972;5.678;2023-05-29T05:54:36;14.2;56.6
78522;SHT31;67819;51.972;5.678;2023-05-29T05:57:04;14.4;54.4
78522;SHT31;67819;51.972;5.678;2023-05-29T05:59:33;14.5;53.8
78522;SHT31;67819;51.972;5.678;2023-05-29T06:02:02;14.5;53.7
78522;SHT31;67819;51.972;5.678;2023-05-29T06:04:31;14.6;53.7
78522;SHT31;67819;51.972;5.678;2023-05-29T06:07:00;14.7;52.9
78522;SHT31;67819;51.972;5.678;2023-05-29T06:09:28;14.8;52.7
78522;SHT31;67819;51.972;5.678;2023-05-29T06:11:57;14.9;52.5
78522;SHT31;67819;51.972;5.678;2023-05-29T06:14:26;15.0;51.7
78522;SHT31;67819;51.972;5.678;2023-05-29T06:16:55;15.1;52.1
78522;SHT31;67819;51.972;5.678;2023-05-29T06:19:24;15.2;50.7
78522;SHT31;67819;51.972;5.678;2023-05-29T06:21:52;15.3;50.0
78522;SHT31;67819;51.972;5.678;2023-05-29T06:24:22;15.3;49.9
78522;SHT31;67819;51.972;5.678;2023-05-29T06:26:50;15.3;49.9
78522;SHT31;67819;51.972;5.678;2023-05-29T06:29:19;15.3;50.7
78522;SHT31;67819;51.972;5.678;2023-05-29T06:31:47;15.3;49.6
78522;SHT31;67819;51.972;5.678;2023-05-29T06:34:16;15.3;50.2
78522;SHT31;67819;51.972;5.678;2023-05-29T06:36:45;15.2;51.0
78522;SHT31;67819;51.972;5.678;2023-05-29T06:39:14;15.1;50.0
78522;SHT31;67819;51.972;5.678;2023-05-29T06:41:44;15.0;50.1
78522;SHT31;67819;51.972;5.678;2023-05-29T06:44:13;14.9;50.3
78522;SHT31;67819;51.972;5.678;2023-05-29T06:46:41;14.8;51.4
78522;SHT31;67819;51.972;5.678;2023-05-29T06:49:10;14.7;50.9
78522;SHT31;67819;51.972;5.678;2023-05-29T06:51:38;14.6;52.1
78522;SHT31;67819;51.972;5.678;2023-05-29T06:54:08;14.6;51.6
78522;SHT31;67819;51.972;5.678;2023-05-29T06:56:36;14.6;51.5
78522;SHT31;67819;51.972;5.678;2023-05-29T06:59:05;14.5;52.6
78522;SHT31;67819;51.972;5.678;2023-05-29T07:01:33;14.5;52.0
78522;SHT31;67819;51.972;5.678;2023-05-29T07:04:02;14.5;51.8
78522;SHT31;67819;51.972;5.678;2023-05-29T07:06:31;14.5;52.0
78522;SHT31;67819;51.972;5.678;2023-05-29T07:09:00;14.5;51.9
78522;SHT31;67819;51.972;5.678;2023-05-29T07:11:28;14.4;51.7
78522;SHT31;67819;51.972;5.678;2023-05-29T07:13:57;14.4;52.7
78522;SHT31;67819;51.972;5.678;2023-05-29T07:16:25;14.4;51.7
78522;SHT31;67819;51.972;5.678;2023-05-29T07:18:54;14.4;51.8
78522;SHT31;67819;51.972;5.678;2023-05-29T07:21:22;14.4;51.3
78522;SHT31;67819;51.972;5.678;2023-05-29T07:23:51;14.4;51.8
78522;SHT31;67819;51.972;5.678;2023-05-29T07:26:20;14.4;51.7
78522;SHT31;67819;51.972;5.678;2023-05-29T07:28:51;14.4;52.4
78522;SHT31;67819;51.972;5.678;2023-05-29T07:31:19;14.4;53.0
78522;SHT31;67819;51.972;5.678;2023-05-29T07:33:48;14.5;52.0
78522;SHT31;67819;51.972;5.678;2023-05-29T07:36:17;14.5;51.9
78522;SHT31;67819;51.972;5.678;2023-05-29T07:38:46;14.5;51.6
78522;SHT31;67819;51.972;5.678;2023-05-29T07:41:16;14.6;52.6
78522;SHT31;67819;51.972;5.678;2023-05-29T07:43:45;14.6;52.7
78522;SHT31;67819;51.972;5.678;2023-05-29T07:46:18;14.7;50.9
78522;SHT31;67819;51.972;5.678;2023-05-29T07:48:46;14.7;51.7
78522;SHT31;67819;51.972;5.678;2023-05-29T07:51:17;14.7;52.0
78522;SHT31;67819;51.972;5.678;2023-05-29T07:53:46;14.7;51.9
78522;SHT31;67819;51.972;5.678;2023-05-29T07:56:14;14.7;52.0
78522;SHT31;67819;51.972;5.678;2023-05-29T07:58:43;14.8;52.0
78522;SHT31;67819;51.972;5.678;2023-05-29T08:01:12;14.8;51.6
78522;SHT31;67819;51.972;5.678;2023-05-29T08:03:44;14.9;51.0
78522;SHT31;67819;51.972;5.678;2023-05-29T08:06:13;14.9;51.8
78522;SHT31;67819;51.972;5.678;2023-05-29T08:08:43;14.9;51.8
78522;SHT31;67819;51.972;5.678;2023-05-29T08:11:11;15.0;51.0
78522;SHT31;67819;51.972;5.678;2023-05-29T08:13:42;15.0;52.3
78522;SHT31;67819;51.972;5.678;2023-05-29T08:16:10;15.1;50.7
78522;SHT31;67819;51.972;5.678;2023-05-29T08:18:40;15.1;50.2
78522;SHT31;67819;51.972;5.678;2023-05-29T08:21:09;15.2;50.3
78522;SHT31;67819;51.972;5.678;2023-05-29T08:23:38;15.2;50.2
78522;SHT31;67819;51.972;5.678;2023-05-29T08:26:08;15.3;49.5
78522;SHT31;67819;51.972;5.678;2023-05-29T08:28:37;15.3;50.3
78522;SHT31;67819;51.972;5.678;2023-05-29T08:31:05;15.3;50.2
78522;SHT31;67819;51.972;5.678;2023-05-29T08:33:34;15.4;49.2
78522;SHT31;67819;51.972;5.678;2023-05-29T08:36:03;15.4;49.0
78522;SHT31;67819;51.972;5.678;2023-05-29T08:38:31;15.4;49.7
78522;SHT31;67819;51.972;5.678;2023-05-29T08:41:00;15.5;49.3
78522;SHT31;67819;51.972;5.678;2023-05-29T08:43:31;15.5;50.5
78522;SHT31;67819;51.972;5.678;2023-05-29T08:46:02;15.6;49.2
78522;SHT31;67819;51.972;5.678;2023-05-29T08:48:31;15.6;50.1
78522;SHT31;67819;51.972;5.678;2023-05-29T08:51:02;15.7;51.5
78522;SHT31;67819;51.972;5.678;2023-05-29T08:53:31;15.8;51.0
78522;SHT31;67819;51.972;5.678;2023-05-29T08:56:01;15.9;50.4
78522;SHT31;67819;51.972;5.678;2023-05-29T08:58:30;16.0;48.7
78522;SHT31;67819;51.972;5.678;2023-05-29T09:01:03;16.1;49.0
78522;SHT31;67819;51.972;5.678;2023-05-29T09:03:32;16.1;48.4
78522;SHT31;67819;51.972;5.678;2023-05-29T09:06:04;16.2;49.8
78522;SHT31;67819;51.972;5.678;2023-05-29T09:08:33;16.2;48.5
78522;SHT31;67819;51.972;5.678;2023-05-29T09:11:03;16.3;49.1
78522;SHT31;67819;51.972;5.678;2023-05-29T09:13:32;16.3;48.8
78522;SHT31;67819;51.972;5.678;2023-05-29T09:16:04;16.4;48.6
78522;SHT31;67819;51.972;5.678;2023-05-29T09:18:33;16.4;48.4
78522;SHT31;67819;51.972;5.678;2023-05-29T09:21:06;16.5;48.3
78522;SHT31;67819;51.972;5.678;2023-05-29T09:23:37;16.5;48.1
78522;SHT31;67819;51.972;5.678;2023-05-29T09:26:06;16.6;48.5
78522;SHT31;67819;51.972;5.678;2023-05-29T09:28:34;16.6;47.5
78522;SHT31;67819;51.972;5.678;2023-05-29T09:31:15;16.7;47.5
78522;SHT31;67819;51.972;5.678;2023-05-29T09:33:49;16.8;47.3
78522;SHT31;67819;51.972;5.678;2023-05-29T09:36:23;16.9;46.0
78522;SHT31;67819;51.972;5.678;2023-05-29T09:38:52;16.9;47.0
78522;SHT31;67819;51.972;5.678;2023-05-29T09:41:24;17.0;46.2
78522;SHT31;67819;51.972;5.678;2023-05-29T09:43:52;17.1;45.4
78522;SHT31;67819;51.972;5.678;2023-05-29T09:46:23;17.1;46.3
78522;SHT31;67819;51.972;5.678;2023-05-29T09:48:52;17.2;46.0
78522;SHT31;67819;51.972;5.678;2023-05-29T09:51:21;17.2;45.2
78522;SHT31;67819;51.972;5.678;2023-05-29T09:53:50;17.3;45.6
78522;SHT31;67819;51.972;5.678;2023-05-29T09:56:23;17.3;44.7
78522;SHT31;67819;51.972;5.678;2023-05-29T09:58:53;17.4;44.0
78522;SHT31;67819;51.972;5.678;2023-05-29T10:01:25;17.4;44.4
78522;SHT31;67819;51.972;5.678;2023-05-29T10:03:55;17.4;43.9
78522;SHT31;67819;51.972;5.678;2023-05-29T10:06:24;17.4;44.0
78522;SHT31;67819;51.972;5.678;2023-05-29T10:08:53;17.4;43.9
78522;SHT31;67819;51.972;5.678;2023-05-29T10:11:23;17.5;43.8
78522;SHT31;67819;51.972;5.678;2023-05-29T10:13:54;17.5;43.2
78522;SHT31;67819;51.972;5.678;2023-05-29T10:16:26;17.5;43.7
78522;SHT31;67819;51.972;5.678;2023-05-29T10:18:56;17.5;42.5
78522;SHT31;67819;51.972;5.678;2023-05-29T10:21:28;17.6;42.8
78522;SHT31;67819;51.972;5.678;2023-05-29T10:24:00;17.6;43.3
78522;SHT31;67819;51.972;5.678;2023-05-29T10:26:34;17.6;41.6
78522;SHT31;67819;51.972;5.678;2023-05-29T10:29:08;17.6;41.8
78522;SHT31;67819;51.972;5.678;2023-05-29T10:31:48;17.7;42.3
78522;SHT31;67819;51.972;5.678;2023-05-29T10:34:27;17.7;41.3
78522;SHT31;67819;51.972;5.678;2023-05-29T10:37:03;17.8;41.7
78522;SHT31;67819;51.972;5.678;2023-05-29T10:39:34;17.9;41.3
78522;SHT31;67819;51.972;5.678;2023-05-29T10:42:39;17.9;40.2
78522;SHT31;67819;51.972;5.678;2023-05-29T10:45:05;18.0;39.3
78522;SHT31;67819;51.972;5.678;2023-05-29T10:47:34;18.0;40.2
78522;SHT31;67819;51.972;5.678;2023-05-29T10:50:05;18.1;40.5
78522;SHT31;67819;51.972;5.678;2023-05-29T10:52:36;18.1;40.8
78522;SHT31;67819;51.972;5.678;2023-05-29T10:55:10;18.2;40.2
78522;SHT31;67819;51.972;5.678;2023-05-29T10:57:48;18.3;39.5
78522;SHT31;67819;51.972;5.678;2023-05-29T11:00:17;18.3;39.8
78522;SHT31;67819;51.972;5.678;2023-05-29T11:02:47;18.3;38.0
78522;SHT31;67819;51.972;5.678;2023-05-29T11:05:25;18.4;37.5
78522;SHT31;67819;51.972;5.678;2023-05-29T11:08:02;18.4;39.0
78522;SHT31;67819;51.972;5.678;2023-05-29T11:10:44;18.4;39.2
78522;SHT31;67819;51.972;5.678;2023-05-29T11:13:24;18.4;39.7
78522;SHT31;67819;51.972;5.678;2023-05-29T11:17:47;18.4;39.3
78522;SHT31;67819;51.972;5.678;2023-05-29T11:20:43;18.4;39.6
78522;SHT31;67819;51.972;5.678;2023-05-29T11:23:16;18.4;40.8
78522;SHT31;67819;51.972;5.678;2023-05-29T11:25:48;18.5;40.7
78522;SHT31;67819;51.972;5.678;2023-05-29T11:28:17;18.5;41.1
78522;SHT31;67819;51.972;5.678;2023-05-29T11:30:47;18.7;39.9
78522;SHT31;67819;51.972;5.678;2023-05-29T11:33:23;18.8;37.5
78522;SHT31;67819;51.972;5.678;2023-05-29T11:36:02;18.8;36.6
78522;SHT31;67819;51.972;5.678;2023-05-29T11:38:31;18.8;37.7
78522;SHT31;67819;51.972;5.678;2023-05-29T11:41:01;18.9;36.6
78522;SHT31;67819;51.972;5.678;2023-05-29T11:43:29;18.9;36.0
78522;SHT31;67819;51.972;5.678;2023-05-29T11:45:58;18.9;36.7
78522;SHT31;67819;51.972;5.678;2023-05-29T11:48:27;19.0;37.2
78522;SHT31;67819;51.972;5.678;2023-05-29T11:50:55;19.0;37.6
78522;SHT31;67819;51.972;5.678;2023-05-29T11:53:25;19.1;36.7
78522;SHT31;67819;51.972;5.678;2023-05-29T11:56:08;19.1;37.3
78522;SHT31;67819;51.972;5.678;2023-05-29T11:58:38;19.1;38.3
78522;SHT31;67819;51.972;5.678;2023-05-29T12:01:08;19.2;36.4
78522;SHT31;67819;51.972;5.678;2023-05-29T12:03:41;19.2;36.2
78522;SHT31;67819;51.972;5.678;2023-05-29T12:06:10;19.2;36.3
78522;SHT31;67819;51.972;5.678;2023-05-29T12:08:39;19.2;36.8
78522;SHT31;67819;51.972;5.678;2023-05-29T12:11:10;19.3;36.4
78522;SHT31;67819;51.972;5.678;2023-05-29T12:13:38;19.3;37.7
78522;SHT31;67819;51.972;5.678;2023-05-29T12:16:07;19.3;37.1
78522;SHT31;67819;51.972;5.678;2023-05-29T12:18:36;19.3;37.1
78522;SHT31;67819;51.972;5.678;2023-05-29T12:21:05;19.3;37.5
78522;SHT31;67819;51.972;5.678;2023-05-29T12:23:34;19.4;36.2
78522;SHT31;67819;51.972;5.678;2023-05-29T12:26:02;19.4;36.5
78522;SHT31;67819;51.972;5.678;2023-05-29T12:28:31;19.4;36.6
78522;SHT31;67819;51.972;5.678;2023-05-29T12:31:00;19.4;36.2
78522;SHT31;67819;51.972;5.678;2023-05-29T12:33:31;19.4;36.2
78522;SHT31;67819;51.972;5.678;2023-05-29T12:36:03;19.4;36.0
78522;SHT31;67819;51.972;5.678;2023-05-29T12:38:32;19.4;36.9
78522;SHT31;67819;51.972;5.678;2023-05-29T12:41:02;19.4;35.7
78522;SHT31;67819;51.972;5.678;2023-05-29T12:43:31;19.5;35.9
78522;SHT31;67819;51.972;5.678;2023-05-29T12:46:00;19.5;36.2
78522;SHT31;67819;51.972;5.678;2023-05-29T12:48:30;19.6;34.6
78522;SHT31;67819;51.972;5.678;2023-05-29T12:51:06;19.6;34.5
78522;SHT31;67819;51.972;5.678;2023-05-29T12:53:35;19.7;34.7
78522;SHT31;67819;51.972;5.678;2023-05-29T12:56:04;19.8;34.2
78522;SHT31;67819;51.972;5.678;2023-05-29T12:58:32;19.8;34.8
78522;SHT31;67819;51.972;5.678;2023-05-29T13:01:01;19.8;34.2
78522;SHT31;67819;51.972;5.678;2023-05-29T13:03:32;19.8;33.8
78522;SHT31;67819;51.972;5.678;2023-05-29T13:06:00;19.9;33.5
78522;SHT31;67819;51.972;5.678;2023-05-29T13:08:29;19.9;33.6
78522;SHT31;67819;51.972;5.678;2023-05-29T13:10:57;20.0;34.4
78522;SHT31;67819;51.972;5.678;2023-05-29T13:13:26;20.1;35.2
78522;SHT31;67819;51.972;5.678;2023-05-29T13:15:54;20.3;34.0
78522;SHT31;67819;51.972;5.678;2023-05-29T13:18:23;20.5;33.3
78522;SHT31;67819;51.972;5.678;2023-05-29T13:20:52;20.7;31.8
78522;SHT31;67819;51.972;5.678;2023-05-29T13:23:20;20.8;31.1
78522;SHT31;67819;51.972;5.678;2023-05-29T13:25:49;20.9;31.8
78522;SHT31;67819;51.972;5.678;2023-05-29T13:28:18;20.9;32.0
78522;SHT31;67819;51.972;5.678;2023-05-29T13:30:47;21.0;30.6
78522;SHT31;67819;51.972;5.678;2023-05-29T13:33:16;21.1;31.0
78522;SHT31;67819;51.972;5.678;2023-05-29T13:35:45;21.2;31.2
78522;SHT31;67819;51.972;5.678;2023-05-29T13:38:13;21.2;30.5
78522;SHT31;67819;51.972;5.678;2023-05-29T13:40:42;21.3;29.9
78522;SHT31;67819;51.972;5.678;2023-05-29T13:43:10;21.3;28.2
78522;SHT31;67819;51.972;5.678;2023-05-29T13:45:39;21.3;28.0
78522;SHT31;67819;51.972;5.678;2023-05-29T13:48:09;21.3;28.6
78522;SHT31;67819;51.972;5.678;2023-05-29T13:50:38;21.2;29.5
78522;SHT31;67819;51.972;5.678;2023-05-29T13:53:06;21.2;30.0
78522;SHT31;67819;51.972;5.678;2023-05-29T13:55:35;21.1;30.8
78522;SHT31;67819;51.972;5.678;2023-05-29T13:58:04;21.0;30.6
78522;SHT31;67819;51.972;5.678;2023-05-29T14:00:32;21.0;30.8
78522;SHT31;67819;51.972;5.678;2023-05-29T14:03:01;21.0;29.6
78522;SHT31;67819;51.972;5.678;2023-05-29T14:05:29;21.0;31.1
78522;SHT31;67819;51.972;5.678;2023-05-29T14:07:58;21.0;30.9
78522;SHT31;67819;51.972;5.678;2023-05-29T14:10:27;21.2;31.4
78522;SHT31;67819;51.972;5.678;2023-05-29T14:12:55;21.3;31.1
78522;SHT31;67819;51.972;5.678;2023-05-29T14:15:24;21.4;30.9
78522;SHT31;67819;51.972;5.678;2023-05-29T14:17:52;21.5;29.9
78522;SHT31;67819;51.972;5.678;2023-05-29T14:20:21;21.5;30.2
78522;SHT31;67819;51.972;5.678;2023-05-29T14:22:49;21.6;30.9
78522;SHT31;67819;51.972;5.678;2023-05-29T14:25:18;21.6;31.3
78522;SHT31;67819;51.972;5.678;2023-05-29T14:27:47;21.7;30.3
78522;SHT31;67819;51.972;5.678;2023-05-29T14:30:15;21.6;31.0
78522;SHT31;67819;51.972;5.678;2023-05-29T14:32:44;21.6;30.6
78522;SHT31;67819;51.972;5.678;2023-05-29T14:35:13;21.6;30.1
78522;SHT31;67819;51.972;5.678;2023-05-29T14:37:41;21.5;31.9
78522;SHT31;67819;51.972;5.678;2023-05-29T14:40:10;21.4;31.9
78522;SHT31;67819;51.972;5.678;2023-05-29T14:42:39;21.3;33.1
78522;SHT31;67819;51.972;5.678;2023-05-29T14:45:10;21.2;32.4
78522;SHT31;67819;51.972;5.678;2023-05-29T14:47:40;21.2;32.6
78522;SHT31;67819;51.972;5.678;2023-05-29T14:50:09;21.2;33.6
78522;SHT31;67819;51.972;5.678;2023-05-29T14:52:39;21.2;32.0
78522;SHT31;67819;51.972;5.678;2023-05-29T14:55:08;21.1;30.0
78522;SHT31;67819;51.972;5.678;2023-05-29T14:57:36;21.1;30.4
78522;SHT31;67819;51.972;5.678;2023-05-29T15:00:06;21.0;31.8
78522;SHT31;67819;51.972;5.678;2023-05-29T15:02:35;20.9;32.7
78522;SHT31;67819;51.972;5.678;2023-05-29T15:05:06;20.9;32.5
78522;SHT31;67819;51.972;5.678;2023-05-29T15:07:35;20.8;32.8
78522;SHT31;67819;51.972;5.678;2023-05-29T15:10:04;20.8;30.9
78522;SHT31;67819;51.972;5.678;2023-05-29T15:12:33;20.8;30.8
78522;SHT31;67819;51.972;5.678;2023-05-29T15:15:02;20.7;30.0
78522;SHT31;67819;51.972;5.678;2023-05-29T15:17:32;20.7;30.8
78522;SHT31;67819;51.972;5.678;2023-05-29T15:20:00;20.7;30.6
78522;SHT31;67819;51.972;5.678;2023-05-29T15:22:29;20.7;30.8
78522;SHT31;67819;51.972;5.678;2023-05-29T15:24:58;20.6;31.4
78522;SHT31;67819;51.972;5.678;2023-05-29T15:27:29;20.6;31.2
78522;SHT31;67819;51.972;5.678;2023-05-29T15:30:09;20.6;31.4
78522;SHT31;67819;51.972;5.678;2023-05-29T15:32:41;20.6;31.4
78522;SHT31;67819;51.972;5.678;2023-05-29T15:35:11;20.5;30.6
78522;SHT31;67819;51.972;5.678;2023-05-29T15:37:41;20.5;30.6
78522;SHT31;67819;51.972;5.678;2023-05-29T15:40:10;20.4;30.8
78522;SHT31;67819;51.972;5.678;2023-05-29T15:42:39;20.4;31.0
78522;SHT31;67819;51.972;5.678;2023-05-29T15:45:08;20.4;30.5
78522;SHT31;67819;51.972;5.678;2023-05-29T15:47:39;20.3;31.4
78522;SHT31;67819;51.972;5.678;2023-05-29T15:50:08;20.3;33.5
78522;SHT31;67819;51.972;5.678;2023-05-29T15:52:37;20.3;32.6
78522;SHT31;67819;51.972;5.678;2023-05-29T15:55:06;20.3;32.8
78522;SHT31;67819;51.972;5.678;2023-05-29T15:57:35;20.3;32.1
78522;SHT31;67819;51.972;5.678;2023-05-29T16:00:04;20.3;31.6
78522;SHT31;67819;51.972;5.678;2023-05-29T16:02:35;20.3;32.5
78522;SHT31;67819;51.972;5.678;2023-05-29T16:05:04;20.3;30.9
78522;SHT31;67819;51.972;5.678;2023-05-29T16:07:32;20.3;31.6
78522;SHT31;67819;51.972;5.678;2023-05-29T16:10:03;20.3;31.9
78522;SHT31;67819;51.972;5.678;2023-05-29T16:12:32;20.3;32.0
78522;SHT31;67819;51.972;5.678;2023-05-29T16:15:01;20.4;32.3
78522;SHT31;67819;51.972;5.678;2023-05-29T16:17:30;20.4;32.7
78522;SHT31;67819;51.972;5.678;2023-05-29T16:19:58;20.4;33.2
78522;SHT31;67819;51.972;5.678;2023-05-29T16:22:27;20.4;33.1